首页
METAR-TAF:

METAR-TAF

机场 :

奧爾斯克, 俄罗斯

纬度: 51-04-18N, 经度: 058-35-48E, 海拔: 277米

当前天气观测

该预报发布于42分钟前的13:00 UTC
风速10节,风向西
温度 -2°C
湿度 86%
气压 1024 hPa
能见度10公里或以上
多云层高于4400英尺

METAR: UWOR 191300Z 28005MPS 9999 BKN044 M02/M04 Q1024 R25/820250 NOSIG RMK QFE744/0993

时间: 18:42 (13:42 UTC)

预报

该预报发布于2小时和46分钟前的10:56 UTC
预报有效从19日的 12点(UTC)到 19日的 21点(UTC)
风速6节,风向西,有时为17节阵风
能見度: 5000
阴天层高于1500英尺
轻雾
短暂存在
从 19日的 12点(UTC)到 19日的 21点(UTC)
风速10节,风向西转西南
能見度: 0500
层高于200英尺
(小) 米雪, 冻雾

TAF: UWOR 191056Z 1912/1921 27003G09MPS 5000 BR OVC015 TXM01/1913Z TNM08/1918Z TEMPO 1912/1921 25005MPS 0500 -SG FZFG VV002

超过4000个机场的气象观测和天气预报(METAR&TAF报告)。

可查询的气象台以黄色和红色小点在地图上表示。

将鼠标移到小点上方,可查看气象台名称。

然后点击查看天气观测和预报。

如需切换地图:点击带黑十字的绿色按钮放大地图;点击带横线的绿色按钮缩小地图;或者点击绿色箭头查看邻近地区的地图。


METAR-TAF: